Asbury, Iowa
Current Conditions -  °F | °C
As of 1:53 PM on Monday 24 Nov 2014 (Local Time) from KDBQ Reporting Station
Haze Haze  
Wind Chill: -13°   Ceiling: 1200
Heat Index: -5°   Visibility: 6mi
Dew Point: -7°   Wind: 21mph
Humidity: 88%   Direction: 280°W
Pressure: 29.47"   Gusts: 35mph
Location:  42.522°N, 90.7782°W
Report Text: KDBQ 241953Z 28018G30KT 6SM BR OVC012 M05/M07 A2947 RMK AO2 PK WND 28034/1855 SLP992 T10501067
Loading
Personal Weather Stations






























Interactive Weather Map New forecast layout! Learn more

10-Day Weather Forecast

Advertisements
Track Severe Weather on mobile